sensor_id;sensor_type;location;lat;lon;timestamp;P1;durP1;ratioP1;P2;durP2;ratioP2
68718;SDS011;55696;52.138;5.444;2023-09-12T00:00:48;42.17;;;23.88;;
68718;SDS011;55696;52.138;5.444;2023-09-12T00:03:18;50.50;;;28.15;;
68718;SDS011;55696;52.138;5.444;2023-09-12T00:05:53;47.38;;;26.17;;
68718;SDS011;55696;52.138;5.444;2023-09-12T00:08:21;46.10;;;26.50;;
68718;SDS011;55696;52.138;5.444;2023-09-12T00:11:04;49.83;;;27.30;;
68718;SDS011;55696;52.138;5.444;2023-09-12T00:13:32;42.72;;;24.52;;
68718;SDS011;55696;52.138;5.444;2023-09-12T00:15:59;45.20;;;25.85;;
68718;SDS011;55696;52.138;5.444;2023-09-12T00:18:27;53.97;;;29.67;;
68718;SDS011;55696;52.138;5.444;2023-09-12T00:20:54;51.70;;;28.52;;
68718;SDS011;55696;52.138;5.444;2023-09-12T00:23:21;47.07;;;27.03;;
68718;SDS011;55696;52.138;5.444;2023-09-12T00:25:50;49.58;;;27.15;;
68718;SDS011;55696;52.138;5.444;2023-09-12T00:28:20;53.15;;;27.90;;
68718;SDS011;55696;52.138;5.444;2023-09-12T00:30:47;46.35;;;26.45;;
68718;SDS011;55696;52.138;5.444;2023-09-12T00:33:14;50.50;;;28.45;;
68718;SDS011;55696;52.138;5.444;2023-09-12T00:35:40;43.10;;;25.47;;
68718;SDS011;55696;52.138;5.444;2023-09-12T00:38:08;46.95;;;25.23;;
68718;SDS011;55696;52.138;5.444;2023-09-12T00:40:35;46.15;;;25.88;;
68718;SDS011;55696;52.138;5.444;2023-09-12T00:43:03;46.10;;;24.10;;
68718;SDS011;55696;52.138;5.444;2023-09-12T00:45:31;46.78;;;26.52;;
68718;SDS011;55696;52.138;5.444;2023-09-12T00:47:58;41.30;;;25.13;;
68718;SDS011;55696;52.138;5.444;2023-09-12T00:50:26;42.70;;;25.33;;
68718;SDS011;55696;52.138;5.444;2023-09-12T00:52:53;45.28;;;25.90;;
68718;SDS011;55696;52.138;5.444;2023-09-12T00:55:21;46.05;;;26.13;;
68718;SDS011;55696;52.138;5.444;2023-09-12T00:57:48;41.22;;;24.58;;
68718;SDS011;55696;52.138;5.444;2023-09-12T01:00:16;41.43;;;24.27;;
68718;SDS011;55696;52.138;5.444;2023-09-12T01:02:44;44.28;;;25.40;;
68718;SDS011;55696;52.138;5.444;2023-09-12T01:05:15;46.65;;;24.35;;
68718;SDS011;55696;52.138;5.444;2023-09-12T01:07:43;46.22;;;26.05;;
68718;SDS011;55696;52.138;5.444;2023-09-12T01:10:10;39.17;;;22.75;;
68718;SDS011;55696;52.138;5.444;2023-09-12T01:12:37;37.47;;;21.87;;
68718;SDS011;55696;52.138;5.444;2023-09-12T01:15:04;42.72;;;23.73;;
68718;SDS011;55696;52.138;5.444;2023-09-12T01:17:36;33.95;;;21.02;;
68718;SDS011;55696;52.138;5.444;2023-09-12T01:20:03;37.28;;;22.35;;
68718;SDS011;55696;52.138;5.444;2023-09-12T01:28:07;34.80;;;20.92;;
68718;SDS011;55696;52.138;5.444;2023-09-12T01:30:36;34.95;;;21.45;;
68718;SDS011;55696;52.138;5.444;2023-09-12T01:33:07;32.40;;;21.50;;
68718;SDS011;55696;52.138;5.444;2023-09-12T01:35:34;33.25;;;20.23;;
68718;SDS011;55696;52.138;5.444;2023-09-12T01:38:01;33.50;;;21.37;;
68718;SDS011;55696;52.138;5.444;2023-09-12T01:40:32;32.17;;;21.30;;
68718;SDS011;55696;52.138;5.444;2023-09-12T01:43:10;33.25;;;21.23;;
68718;SDS011;55696;52.138;5.444;2023-09-12T01:45:42;33.42;;;21.17;;
68718;SDS011;55696;52.138;5.444;2023-09-12T01:48:11;32.88;;;21.80;;
68718;SDS011;55696;52.138;5.444;2023-09-12T01:50:39;33.30;;;19.70;;
68718;SDS011;55696;52.138;5.444;2023-09-12T01:53:07;29.73;;;19.63;;
68718;SDS011;55696;52.138;5.444;2023-09-12T01:55:34;35.65;;;21.85;;
68718;SDS011;55696;52.138;5.444;2023-09-12T01:58:02;35.38;;;21.98;;
68718;SDS011;55696;52.138;5.444;2023-09-12T02:00:29;39.85;;;24.25;;
68718;SDS011;55696;52.138;5.444;2023-09-12T02:02:57;34.87;;;20.77;;
68718;SDS011;55696;52.138;5.444;2023-09-12T02:05:24;30.38;;;20.27;;
68718;SDS011;55696;52.138;5.444;2023-09-12T02:07:51;68.68;;;23.23;;
68718;SDS011;55696;52.138;5.444;2023-09-12T02:10:17;33.40;;;21.23;;
68718;SDS011;55696;52.138;5.444;2023-09-12T02:12:44;41.22;;;23.50;;
68718;SDS011;55696;52.138;5.444;2023-09-12T02:15:11;37.83;;;22.27;;
68718;SDS011;55696;52.138;5.444;2023-09-12T02:17:39;36.58;;;23.15;;
68718;SDS011;55696;52.138;5.444;2023-09-12T02:20:09;46.45;;;23.80;;
68718;SDS011;55696;52.138;5.444;2023-09-12T02:22:36;36.60;;;21.95;;
68718;SDS011;55696;52.138;5.444;2023-09-12T02:25:04;36.45;;;23.13;;
68718;SDS011;55696;52.138;5.444;2023-09-12T02:27:31;34.50;;;20.20;;
68718;SDS011;55696;52.138;5.444;2023-09-12T02:29:58;43.40;;;20.02;;
68718;SDS011;55696;52.138;5.444;2023-09-12T02:32:25;135.68;;;21.17;;
68718;SDS011;55696;52.138;5.444;2023-09-12T02:34:52;54.22;;;19.77;;
68718;SDS011;55696;52.138;5.444;2023-09-12T02:37:19;58.42;;;19.95;;
68718;SDS011;55696;52.138;5.444;2023-09-12T02:39:46;36.60;;;19.40;;
68718;SDS011;55696;52.138;5.444;2023-09-12T02:42:13;64.00;;;18.92;;
68718;SDS011;55696;52.138;5.444;2023-09-12T02:44:40;58.10;;;20.00;;
68718;SDS011;55696;52.138;5.444;2023-09-12T02:47:07;56.95;;;18.85;;
68718;SDS011;55696;52.138;5.444;2023-09-12T02:49:34;199.85;;;23.00;;
68718;SDS011;55696;52.138;5.444;2023-09-12T02:52:01;33.13;;;18.17;;
68718;SDS011;55696;52.138;5.444;2023-09-12T02:54:28;36.83;;;18.63;;
68718;SDS011;55696;52.138;5.444;2023-09-12T02:56:55;31.88;;;18.83;;
68718;SDS011;55696;52.138;5.444;2023-09-12T02:59:21;34.97;;;18.88;;
68718;SDS011;55696;52.138;5.444;2023-09-12T03:01:48;78.57;;;19.20;;
68718;SDS011;55696;52.138;5.444;2023-09-12T03:04:15;35.63;;;18.07;;
68718;SDS011;55696;52.138;5.444;2023-09-12T03:06:42;49.45;;;16.63;;
68718;SDS011;55696;52.138;5.444;2023-09-12T03:09:10;36.53;;;16.85;;
68718;SDS011;55696;52.138;5.444;2023-09-12T03:11:38;35.95;;;18.98;;
68718;SDS011;55696;52.138;5.444;2023-09-12T03:14:05;25.58;;;16.55;;
68718;SDS011;55696;52.138;5.444;2023-09-12T03:16:32;28.70;;;16.30;;
68718;SDS011;55696;52.138;5.444;2023-09-12T03:19:00;22.15;;;15.65;;
68718;SDS011;55696;52.138;5.444;2023-09-12T03:21:28;25.13;;;16.58;;
68718;SDS011;55696;52.138;5.444;2023-09-12T03:23:56;23.70;;;16.00;;
68718;SDS011;55696;52.138;5.444;2023-09-12T03:26:23;21.60;;;16.55;;
68718;SDS011;55696;52.138;5.444;2023-09-12T03:28:50;20.60;;;14.60;;
68718;SDS011;55696;52.138;5.444;2023-09-12T03:31:17;19.75;;;14.50;;
68718;SDS011;55696;52.138;5.444;2023-09-12T03:33:45;22.20;;;13.85;;
68718;SDS011;55696;52.138;5.444;2023-09-12T03:36:16;23.92;;;16.15;;
68718;SDS011;55696;52.138;5.444;2023-09-12T03:38:44;20.88;;;15.05;;
68718;SDS011;55696;52.138;5.444;2023-09-12T03:41:11;19.67;;;14.90;;
68718;SDS011;55696;52.138;5.444;2023-09-12T03:43:38;18.73;;;13.77;;
68718;SDS011;55696;52.138;5.444;2023-09-12T03:46:05;17.88;;;12.65;;
68718;SDS011;55696;52.138;5.444;2023-09-12T03:48:33;18.55;;;14.07;;
68718;SDS011;55696;52.138;5.444;2023-09-12T03:51:02;20.75;;;14.10;;
68718;SDS011;55696;52.138;5.444;2023-09-12T03:53:30;18.23;;;13.50;;
68718;SDS011;55696;52.138;5.444;2023-09-12T03:55:57;18.17;;;13.10;;
68718;SDS011;55696;52.138;5.444;2023-09-12T03:58:25;17.40;;;12.52;;
68718;SDS011;55696;52.138;5.444;2023-09-12T04:00:52;17.88;;;13.38;;
68718;SDS011;55696;52.138;5.444;2023-09-12T04:03:19;15.80;;;13.05;;
68718;SDS011;55696;52.138;5.444;2023-09-12T04:05:48;18.87;;;12.53;;
68718;SDS011;55696;52.138;5.444;2023-09-12T04:08:16;16.38;;;12.23;;
68718;SDS011;55696;52.138;5.444;2023-09-12T04:10:43;18.88;;;12.10;;
68718;SDS011;55696;52.138;5.444;2023-09-12T04:13:10;15.38;;;12.07;;
68718;SDS011;55696;52.138;5.444;2023-09-12T04:15:37;13.30;;;10.80;;
68718;SDS011;55696;52.138;5.444;2023-09-12T04:18:04;16.03;;;12.53;;
68718;SDS011;55696;52.138;5.444;2023-09-12T04:20:31;16.73;;;12.63;;
68718;SDS011;55696;52.138;5.444;2023-09-12T04:23:02;15.40;;;12.00;;
68718;SDS011;55696;52.138;5.444;2023-09-12T04:25:29;16.67;;;12.75;;
68718;SDS011;55696;52.138;5.444;2023-09-12T04:27:57;19.30;;;13.85;;
68718;SDS011;55696;52.138;5.444;2023-09-12T04:30:24;23.60;;;15.53;;
68718;SDS011;55696;52.138;5.444;2023-09-12T04:32:51;18.92;;;13.57;;
68718;SDS011;55696;52.138;5.444;2023-09-12T04:35:18;21.55;;;15.13;;
68718;SDS011;55696;52.138;5.444;2023-09-12T04:37:46;21.42;;;15.10;;
68718;SDS011;55696;52.138;5.444;2023-09-12T04:40:14;20.77;;;16.05;;
68718;SDS011;55696;52.138;5.444;2023-09-12T04:42:41;21.17;;;14.17;;
68718;SDS011;55696;52.138;5.444;2023-09-12T04:45:09;23.52;;;17.40;;
68718;SDS011;55696;52.138;5.444;2023-09-12T04:47:36;23.52;;;15.88;;
68718;SDS011;55696;52.138;5.444;2023-09-12T04:50:03;29.45;;;18.70;;
68718;SDS011;55696;52.138;5.444;2023-09-12T04:52:30;29.15;;;18.95;;
68718;SDS011;55696;52.138;5.444;2023-09-12T04:54:59;24.00;;;15.87;;
68718;SDS011;55696;52.138;5.444;2023-09-12T04:57:27;37.97;;;20.40;;
68718;SDS011;55696;52.138;5.444;2023-09-12T04:59:57;44.60;;;20.13;;
68718;SDS011;55696;52.138;5.444;2023-09-12T05:02:27;30.27;;;18.55;;
68718;SDS011;55696;52.138;5.444;2023-09-12T05:04:54;34.53;;;20.05;;
68718;SDS011;55696;52.138;5.444;2023-09-12T05:07:22;34.97;;;20.23;;
68718;SDS011;55696;52.138;5.444;2023-09-12T05:09:49;33.58;;;20.38;;
68718;SDS011;55696;52.138;5.444;2023-09-12T05:12:17;36.03;;;19.52;;
68718;SDS011;55696;52.138;5.444;2023-09-12T05:14:44;28.65;;;17.90;;
68718;SDS011;55696;52.138;5.444;2023-09-12T05:17:11;29.90;;;19.90;;
68718;SDS011;55696;52.138;5.444;2023-09-12T05:19:38;30.07;;;18.10;;
68718;SDS011;55696;52.138;5.444;2023-09-12T05:22:05;31.98;;;20.25;;
68718;SDS011;55696;52.138;5.444;2023-09-12T05:24:32;38.05;;;22.10;;
68718;SDS011;55696;52.138;5.444;2023-09-12T05:26:59;35.15;;;19.95;;
68718;SDS011;55696;52.138;5.444;2023-09-12T05:29:26;35.40;;;20.27;;
68718;SDS011;55696;52.138;5.444;2023-09-12T05:31:53;41.67;;;22.73;;
68718;SDS011;55696;52.138;5.444;2023-09-12T05:34:20;42.15;;;22.75;;
68718;SDS011;55696;52.138;5.444;2023-09-12T05:36:47;41.25;;;22.42;;
68718;SDS011;55696;52.138;5.444;2023-09-12T05:39:13;35.85;;;20.90;;
68718;SDS011;55696;52.138;5.444;2023-09-12T05:41:41;38.40;;;22.23;;
68718;SDS011;55696;52.138;5.444;2023-09-12T05:44:08;36.80;;;21.70;;
68718;SDS011;55696;52.138;5.444;2023-09-12T05:46:35;37.53;;;21.60;;
68718;SDS011;55696;52.138;5.444;2023-09-12T05:49:03;39.28;;;22.08;;
68718;SDS011;55696;52.138;5.444;2023-09-12T05:51:30;38.90;;;20.90;;
68718;SDS011;55696;52.138;5.444;2023-09-12T05:53:57;34.33;;;19.35;;
68718;SDS011;55696;52.138;5.444;2023-09-12T05:56:24;45.73;;;23.13;;
68718;SDS011;55696;52.138;5.444;2023-09-12T05:58:51;42.42;;;22.77;;
68718;SDS011;55696;52.138;5.444;2023-09-12T06:01:18;35.58;;;20.55;;
68718;SDS011;55696;52.138;5.444;2023-09-12T06:03:45;39.35;;;22.30;;
68718;SDS011;55696;52.138;5.444;2023-09-12T06:06:12;39.58;;;23.25;;
68718;SDS011;55696;52.138;5.444;2023-09-12T06:08:39;37.43;;;22.53;;
68718;SDS011;55696;52.138;5.444;2023-09-12T06:11:07;39.50;;;23.50;;
68718;SDS011;55696;52.138;5.444;2023-09-12T06:13:33;41.08;;;23.25;;
68718;SDS011;55696;52.138;5.444;2023-09-12T06:16:04;35.75;;;19.67;;
68718;SDS011;55696;52.138;5.444;2023-09-12T06:18:35;40.33;;;23.00;;
68718;SDS011;55696;52.138;5.444;2023-09-12T06:21:02;37.73;;;21.00;;
68718;SDS011;55696;52.138;5.444;2023-09-12T06:23:35;44.78;;;23.52;;
68718;SDS011;55696;52.138;5.444;2023-09-12T06:26:02;44.17;;;24.83;;
68718;SDS011;55696;52.138;5.444;2023-09-12T06:28:30;45.25;;;24.23;;
68718;SDS011;55696;52.138;5.444;2023-09-12T06:30:57;38.05;;;21.83;;
68718;SDS011;55696;52.138;5.444;2023-09-12T06:33:25;37.83;;;18.97;;
68718;SDS011;55696;52.138;5.444;2023-09-12T06:35:53;42.30;;;22.73;;
68718;SDS011;55696;52.138;5.444;2023-09-12T06:38:21;46.00;;;26.08;;
68718;SDS011;55696;52.138;5.444;2023-09-12T06:40:49;45.40;;;23.90;;
68718;SDS011;55696;52.138;5.444;2023-09-12T06:43:16;41.13;;;22.17;;
68718;SDS011;55696;52.138;5.444;2023-09-12T06:45:42;45.70;;;24.63;;
68718;SDS011;55696;52.138;5.444;2023-09-12T06:48:09;41.90;;;23.30;;
68718;SDS011;55696;52.138;5.444;2023-09-12T06:50:37;50.78;;;25.65;;
68718;SDS011;55696;52.138;5.444;2023-09-12T06:53:05;47.40;;;24.88;;
68718;SDS011;55696;52.138;5.444;2023-09-12T06:55:36;49.75;;;25.02;;
68718;SDS011;55696;52.138;5.444;2023-09-12T06:58:03;42.60;;;23.83;;
68718;SDS011;55696;52.138;5.444;2023-09-12T07:00:30;45.22;;;23.55;;
68718;SDS011;55696;52.138;5.444;2023-09-12T07:02:57;46.78;;;25.02;;
68718;SDS011;55696;52.138;5.444;2023-09-12T07:05:24;50.65;;;26.00;;
68718;SDS011;55696;52.138;5.444;2023-09-12T07:07:52;51.38;;;27.20;;
68718;SDS011;55696;52.138;5.444;2023-09-12T07:10:19;50.27;;;26.33;;
68718;SDS011;55696;52.138;5.444;2023-09-12T07:12:50;53.55;;;27.08;;
68718;SDS011;55696;52.138;5.444;2023-09-12T07:15:17;49.75;;;26.50;;
68718;SDS011;55696;52.138;5.444;2023-09-12T07:17:44;46.58;;;24.85;;
68718;SDS011;55696;52.138;5.444;2023-09-12T07:20:11;52.42;;;28.00;;
68718;SDS011;55696;52.138;5.444;2023-09-12T07:22:38;55.13;;;28.87;;
68718;SDS011;55696;52.138;5.444;2023-09-12T07:25:08;49.88;;;27.45;;
68718;SDS011;55696;52.138;5.444;2023-09-12T07:27:38;46.83;;;25.92;;
68718;SDS011;55696;52.138;5.444;2023-09-12T07:30:05;46.03;;;23.17;;
68718;SDS011;55696;52.138;5.444;2023-09-12T07:32:33;43.58;;;23.13;;
68718;SDS011;55696;52.138;5.444;2023-09-12T07:35:00;54.70;;;28.67;;
68718;SDS011;55696;52.138;5.444;2023-09-12T07:37:27;56.65;;;28.30;;
68718;SDS011;55696;52.138;5.444;2023-09-12T07:39:54;46.95;;;24.63;;
68718;SDS011;55696;52.138;5.444;2023-09-12T07:42:24;55.92;;;27.77;;
68718;SDS011;55696;52.138;5.444;2023-09-12T07:44:51;52.58;;;26.55;;
68718;SDS011;55696;52.138;5.444;2023-09-12T07:47:18;47.93;;;24.90;;
68718;SDS011;55696;52.138;5.444;2023-09-12T07:49:45;57.35;;;27.77;;
68718;SDS011;55696;52.138;5.444;2023-09-12T07:52:18;51.97;;;26.83;;
68718;SDS011;55696;52.138;5.444;2023-09-12T07:54:45;50.92;;;27.60;;
68718;SDS011;55696;52.138;5.444;2023-09-12T07:57:12;54.53;;;27.40;;
68718;SDS011;55696;52.138;5.444;2023-09-12T07:59:39;46.83;;;23.63;;
68718;SDS011;55696;52.138;5.444;2023-09-12T08:02:06;43.67;;;23.38;;
68718;SDS011;55696;52.138;5.444;2023-09-12T08:04:33;41.80;;;21.80;;
68718;SDS011;55696;52.138;5.444;2023-09-12T08:07:00;41.58;;;20.90;;
68718;SDS011;55696;52.138;5.444;2023-09-12T08:09:36;39.95;;;21.35;;
68718;SDS011;55696;52.138;5.444;2023-09-12T08:12:21;39.43;;;22.13;;
68718;SDS011;55696;52.138;5.444;2023-09-12T08:14:49;40.53;;;22.70;;
68718;SDS011;55696;52.138;5.444;2023-09-12T08:17:16;40.85;;;21.50;;
68718;SDS011;55696;52.138;5.444;2023-09-12T08:19:43;38.78;;;21.38;;
68718;SDS011;55696;52.138;5.444;2023-09-12T08:22:10;42.00;;;21.65;;
68718;SDS011;55696;52.138;5.444;2023-09-12T08:24:38;41.77;;;21.67;;
68718;SDS011;55696;52.138;5.444;2023-09-12T08:27:08;35.80;;;20.23;;
68718;SDS011;55696;52.138;5.444;2023-09-12T08:29:36;41.97;;;22.08;;
68718;SDS011;55696;52.138;5.444;2023-09-12T08:32:03;43.25;;;21.98;;
68718;SDS011;55696;52.138;5.444;2023-09-12T08:34:30;41.70;;;21.90;;
68718;SDS011;55696;52.138;5.444;2023-09-12T08:36:57;39.83;;;21.50;;
68718;SDS011;55696;52.138;5.444;2023-09-12T08:39:25;40.20;;;21.25;;
68718;SDS011;55696;52.138;5.444;2023-09-12T08:41:53;38.30;;;20.65;;
68718;SDS011;55696;52.138;5.444;2023-09-12T08:44:21;37.50;;;20.80;;
68718;SDS011;55696;52.138;5.444;2023-09-12T08:46:48;34.13;;;19.40;;
68718;SDS011;55696;52.138;5.444;2023-09-12T08:49:15;36.10;;;18.03;;
68718;SDS011;55696;52.138;5.444;2023-09-12T08:51:42;36.97;;;18.80;;
68718;SDS011;55696;52.138;5.444;2023-09-12T08:54:11;39.40;;;19.83;;
68718;SDS011;55696;52.138;5.444;2023-09-12T08:56:39;37.33;;;19.77;;
68718;SDS011;55696;52.138;5.444;2023-09-12T08:59:07;36.65;;;19.25;;
68718;SDS011;55696;52.138;5.444;2023-09-12T09:01:36;34.23;;;17.17;;
68718;SDS011;55696;52.138;5.444;2023-09-12T09:04:05;34.95;;;18.92;;
68718;SDS011;55696;52.138;5.444;2023-09-12T09:06:32;33.80;;;18.73;;
68718;SDS011;55696;52.138;5.444;2023-09-12T09:09:04;36.33;;;18.13;;
68718;SDS011;55696;52.138;5.444;2023-09-12T09:11:34;43.67;;;19.88;;
68718;SDS011;55696;52.138;5.444;2023-09-12T09:14:02;34.57;;;17.70;;
68718;SDS011;55696;52.138;5.444;2023-09-12T09:16:29;32.13;;;17.52;;
68718;SDS011;55696;52.138;5.444;2023-09-12T09:19:04;37.65;;;19.67;;
68718;SDS011;55696;52.138;5.444;2023-09-12T09:21:37;41.03;;;19.65;;
68718;SDS011;55696;52.138;5.444;2023-09-12T09:24:07;34.85;;;19.52;;
68718;SDS011;55696;52.138;5.444;2023-09-12T09:29:08;36.58;;;19.13;;
68718;SDS011;55696;52.138;5.444;2023-09-12T09:31:39;30.75;;;17.80;;
68718;SDS011;55696;52.138;5.444;2023-09-12T09:34:14;34.08;;;17.35;;
68718;SDS011;55696;52.138;5.444;2023-09-12T09:36:49;33.20;;;18.27;;
68718;SDS011;55696;52.138;5.444;2023-09-12T09:39:22;36.17;;;19.50;;
68718;SDS011;55696;52.138;5.444;2023-09-12T09:41:51;31.10;;;17.77;;
68718;SDS011;55696;52.138;5.444;2023-09-12T09:44:23;40.58;;;20.73;;
68718;SDS011;55696;52.138;5.444;2023-09-12T09:46:55;36.20;;;20.73;;
68718;SDS011;55696;52.138;5.444;2023-09-12T09:49:27;38.95;;;20.85;;
68718;SDS011;55696;52.138;5.444;2023-09-12T09:51:54;38.37;;;21.57;;
68718;SDS011;55696;52.138;5.444;2023-09-12T09:54:23;43.38;;;24.05;;
68718;SDS011;55696;52.138;5.444;2023-09-12T09:56:55;39.00;;;21.52;;
68718;SDS011;55696;52.138;5.444;2023-09-12T09:59:23;34.05;;;21.55;;
68718;SDS011;55696;52.138;5.444;2023-09-12T10:01:58;34.28;;;20.85;;
68718;SDS011;55696;52.138;5.444;2023-09-12T10:04:29;41.67;;;23.63;;
68718;SDS011;55696;52.138;5.444;2023-09-12T10:07:11;41.17;;;22.25;;
68718;SDS011;55696;52.138;5.444;2023-09-12T10:09:38;37.67;;;21.25;;
68718;SDS011;55696;52.138;5.444;2023-09-12T10:12:07;38.15;;;21.20;;
68718;SDS011;55696;52.138;5.444;2023-09-12T10:14:35;40.85;;;23.15;;
68718;SDS011;55696;52.138;5.444;2023-09-12T10:17:05;43.17;;;23.07;;
68718;SDS011;55696;52.138;5.444;2023-09-12T10:19:43;36.88;;;21.02;;
68718;SDS011;55696;52.138;5.444;2023-09-12T10:22:25;39.13;;;22.25;;
68718;SDS011;55696;52.138;5.444;2023-09-12T10:24:58;42.00;;;23.67;;
68718;SDS011;55696;52.138;5.444;2023-09-12T10:27:25;41.72;;;22.38;;
68718;SDS011;55696;52.138;5.444;2023-09-12T10:29:53;43.87;;;21.60;;
68718;SDS011;55696;52.138;5.444;2023-09-12T10:32:22;36.63;;;19.50;;
68718;SDS011;55696;52.138;5.444;2023-09-12T10:34:49;43.75;;;23.00;;
68718;SDS011;55696;52.138;5.444;2023-09-12T10:37:18;36.83;;;21.08;;
68718;SDS011;55696;52.138;5.444;2023-09-12T10:39:48;39.90;;;22.00;;
68718;SDS011;55696;52.138;5.444;2023-09-12T10:42:16;40.63;;;21.77;;
68718;SDS011;55696;52.138;5.444;2023-09-12T10:44:44;34.42;;;20.05;;
68718;SDS011;55696;52.138;5.444;2023-09-12T10:47:13;37.25;;;19.15;;
68718;SDS011;55696;52.138;5.444;2023-09-12T10:49:43;34.65;;;19.17;;
68718;SDS011;55696;52.138;5.444;2023-09-12T10:52:10;35.88;;;19.02;;
68718;SDS011;55696;52.138;5.444;2023-09-12T10:54:49;31.10;;;17.90;;
68718;SDS011;55696;52.138;5.444;2023-09-12T10:57:16;30.55;;;17.23;;
68718;SDS011;55696;52.138;5.444;2023-09-12T11:00:08;33.80;;;18.15;;
68718;SDS011;55696;52.138;5.444;2023-09-12T11:02:40;28.30;;;14.85;;
68718;SDS011;55696;52.138;5.444;2023-09-12T11:05:34;28.73;;;16.15;;
68718;SDS011;55696;52.138;5.444;2023-09-12T11:07:58;28.57;;;17.13;;
68718;SDS011;55696;52.138;5.444;2023-09-12T11:10:26;30.60;;;17.63;;
68718;SDS011;55696;52.138;5.444;2023-09-12T11:12:54;26.08;;;16.02;;
68718;SDS011;55696;52.138;5.444;2023-09-12T11:15:28;28.92;;;16.05;;
68718;SDS011;55696;52.138;5.444;2023-09-12T11:18:04;29.60;;;16.20;;
68718;SDS011;55696;52.138;5.444;2023-09-12T11:20:51;29.13;;;16.30;;
68718;SDS011;55696;52.138;5.444;2023-09-12T11:23:24;23.58;;;15.55;;
68718;SDS011;55696;52.138;5.444;2023-09-12T11:26:07;26.67;;;15.73;;
68718;SDS011;55696;52.138;5.444;2023-09-12T11:28:37;27.13;;;15.20;;
68718;SDS011;55696;52.138;5.444;2023-09-12T11:31:05;25.60;;;14.23;;
68718;SDS011;55696;52.138;5.444;2023-09-12T11:33:32;27.87;;;14.60;;
68718;SDS011;55696;52.138;5.444;2023-09-12T11:36:00;24.77;;;13.63;;
68718;SDS011;55696;52.138;5.444;2023-09-12T11:38:30;22.38;;;13.75;;
68718;SDS011;55696;52.138;5.444;2023-09-12T11:40:58;22.48;;;13.40;;
68718;SDS011;55696;52.138;5.444;2023-09-12T11:43:26;22.73;;;13.35;;
68718;SDS011;55696;52.138;5.444;2023-09-12T11:45:54;24.40;;;13.73;;
68718;SDS011;55696;52.138;5.444;2023-09-12T11:48:22;20.38;;;12.07;;
68718;SDS011;55696;52.138;5.444;2023-09-12T11:50:51;21.42;;;12.88;;
68718;SDS011;55696;52.138;5.444;2023-09-12T11:53:26;20.35;;;11.32;;
68718;SDS011;55696;52.138;5.444;2023-09-12T11:55:59;19.10;;;11.40;;
68718;SDS011;55696;52.138;5.444;2023-09-12T11:58:27;16.97;;;10.93;;
68718;SDS011;55696;52.138;5.444;2023-09-12T12:00:55;21.60;;;11.75;;
68718;SDS011;55696;52.138;5.444;2023-09-12T12:03:24;18.13;;;10.50;;
68718;SDS011;55696;52.138;5.444;2023-09-12T12:05:53;19.33;;;11.27;;
68718;SDS011;55696;52.138;5.444;2023-09-12T12:08:22;18.25;;;10.77;;
68718;SDS011;55696;52.138;5.444;2023-09-12T12:10:52;19.97;;;9.87;;
68718;SDS011;55696;52.138;5.444;2023-09-12T12:13:21;20.60;;;10.40;;
68718;SDS011;55696;52.138;5.444;2023-09-12T12:15:49;18.77;;;10.30;;
68718;SDS011;55696;52.138;5.444;2023-09-12T12:18:16;15.77;;;9.45;;
68718;SDS011;55696;52.138;5.444;2023-09-12T12:20:43;15.13;;;9.25;;
68718;SDS011;55696;52.138;5.444;2023-09-12T12:23:10;14.93;;;9.70;;
68718;SDS011;55696;52.138;5.444;2023-09-12T12:25:37;18.70;;;11.80;;
68718;SDS011;55696;52.138;5.444;2023-09-12T12:28:04;23.27;;;12.27;;
68718;SDS011;55696;52.138;5.444;2023-09-12T12:30:32;22.45;;;13.13;;
68718;SDS011;55696;52.138;5.444;2023-09-12T12:33:01;20.77;;;12.63;;
68718;SDS011;55696;52.138;5.444;2023-09-12T12:35:59;18.87;;;10.37;;
68718;SDS011;55696;52.138;5.444;2023-09-12T12:38:27;15.73;;;10.80;;
68718;SDS011;55696;52.138;5.444;2023-09-12T12:40:57;18.50;;;11.30;;
68718;SDS011;55696;52.138;5.444;2023-09-12T12:43:24;16.63;;;10.13;;
68718;SDS011;55696;52.138;5.444;2023-09-12T12:45:53;15.02;;;9.40;;
68718;SDS011;55696;52.138;5.444;2023-09-12T12:50:58;17.90;;;10.52;;
68718;SDS011;55696;52.138;5.444;2023-09-12T12:53:39;17.50;;;10.65;;
68718;SDS011;55696;52.138;5.444;2023-09-12T12:56:19;15.77;;;10.20;;
68718;SDS011;55696;52.138;5.444;2023-09-12T12:58:49;16.17;;;10.50;;
68718;SDS011;55696;52.138;5.444;2023-09-12T13:01:24;19.57;;;11.60;;
68718;SDS011;55696;52.138;5.444;2023-09-12T13:03:51;18.42;;;11.48;;
68718;SDS011;55696;52.138;5.444;2023-09-12T13:06:20;19.63;;;10.95;;
68718;SDS011;55696;52.138;5.444;2023-09-12T13:08:48;16.23;;;9.50;;
68718;SDS011;55696;52.138;5.444;2023-09-12T13:11:16;13.02;;;7.53;;
68718;SDS011;55696;52.138;5.444;2023-09-12T13:13:44;11.33;;;6.57;;
68718;SDS011;55696;52.138;5.444;2023-09-12T13:16:12;12.05;;;5.80;;
68718;SDS011;55696;52.138;5.444;2023-09-12T13:18:40;8.95;;;5.22;;
68718;SDS011;55696;52.138;5.444;2023-09-12T13:21:08;6.72;;;3.80;;
68718;SDS011;55696;52.138;5.444;2023-09-12T13:23:36;7.57;;;3.58;;
68718;SDS011;55696;52.138;5.444;2023-09-12T13:26:04;5.73;;;3.33;;
68718;SDS011;55696;52.138;5.444;2023-09-12T13:28:33;9.07;;;4.82;;
68718;SDS011;55696;52.138;5.444;2023-09-12T13:31:00;12.07;;;5.90;;
68718;SDS011;55696;52.138;5.444;2023-09-12T13:33:26;8.73;;;5.70;;
68718;SDS011;55696;52.138;5.444;2023-09-12T13:35:53;9.35;;;5.00;;
68718;SDS011;55696;52.138;5.444;2023-09-12T13:38:20;10.17;;;6.20;;
68718;SDS011;55696;52.138;5.444;2023-09-12T13:40:49;9.52;;;6.25;;
68718;SDS011;55696;52.138;5.444;2023-09-12T13:43:16;11.63;;;6.05;;
68718;SDS011;55696;52.138;5.444;2023-09-12T13:45:44;7.22;;;4.55;;
68718;SDS011;55696;52.138;5.444;2023-09-12T13:48:11;8.45;;;4.03;;
68718;SDS011;55696;52.138;5.444;2023-09-12T13:50:40;7.30;;;4.47;;
68718;SDS011;55696;52.138;5.444;2023-09-12T13:53:09;7.72;;;4.30;;
68718;SDS011;55696;52.138;5.444;2023-09-12T13:55:36;11.48;;;5.82;;
68718;SDS011;55696;52.138;5.444;2023-09-12T13:58:24;10.30;;;5.85;;
68718;SDS011;55696;52.138;5.444;2023-09-12T14:00:56;11.65;;;6.40;;
68718;SDS011;55696;52.138;5.444;2023-09-12T14:03:22;13.07;;;5.77;;
68718;SDS011;55696;52.138;5.444;2023-09-12T14:05:50;10.80;;;7.10;;
68718;SDS011;55696;52.138;5.444;2023-09-12T14:08:18;12.85;;;6.85;;
68718;SDS011;55696;52.138;5.444;2023-09-12T14:10:46;11.45;;;6.47;;
68718;SDS011;55696;52.138;5.444;2023-09-12T14:13:14;11.60;;;6.70;;
68718;SDS011;55696;52.138;5.444;2023-09-12T14:15:48;15.23;;;8.43;;
68718;SDS011;55696;52.138;5.444;2023-09-12T14:18:17;17.73;;;8.63;;
68718;SDS011;55696;52.138;5.444;2023-09-12T14:20:45;15.13;;;9.23;;
68718;SDS011;55696;52.138;5.444;2023-09-12T14:23:14;15.00;;;8.20;;
68718;SDS011;55696;52.138;5.444;2023-09-12T14:25:41;19.27;;;11.10;;
68718;SDS011;55696;52.138;5.444;2023-09-12T14:28:09;16.10;;;9.73;;
68718;SDS011;55696;52.138;5.444;2023-09-12T14:30:37;19.40;;;11.45;;
68718;SDS011;55696;52.138;5.444;2023-09-12T14:33:05;20.00;;;10.45;;
68718;SDS011;55696;52.138;5.444;2023-09-12T14:35:32;15.95;;;9.50;;
68718;SDS011;55696;52.138;5.444;2023-09-12T14:37:59;18.23;;;10.18;;
68718;SDS011;55696;52.138;5.444;2023-09-12T14:40:26;19.17;;;11.60;;
68718;SDS011;55696;52.138;5.444;2023-09-12T14:42:54;19.42;;;10.45;;